sensor_id;sensor_type;location;lat;lon;timestamp;temperature;humidity
17437;DHT22;8836;52.272;5.134;2022-08-02T00:00:29;25.40;96.50
17437;DHT22;8836;52.272;5.134;2022-08-02T00:02:56;25.40;96.50
17437;DHT22;8836;52.272;5.134;2022-08-02T00:05:23;25.40;96.50
17437;DHT22;8836;52.272;5.134;2022-08-02T00:07:50;25.40;96.50
17437;DHT22;8836;52.272;5.134;2022-08-02T00:10:17;25.40;96.50
17437;DHT22;8836;52.272;5.134;2022-08-02T00:12:44;25.40;96.60
17437;DHT22;8836;52.272;5.134;2022-08-02T00:15:11;25.40;96.50
17437;DHT22;8836;52.272;5.134;2022-08-02T00:17:40;25.40;96.50
17437;DHT22;8836;52.272;5.134;2022-08-02T00:20:08;25.40;96.60
17437;DHT22;8836;52.272;5.134;2022-08-02T00:22:37;25.40;96.60
17437;DHT22;8836;52.272;5.134;2022-08-02T00:25:04;25.40;96.50
17437;DHT22;8836;52.272;5.134;2022-08-02T00:27:32;25.40;96.50
17437;DHT22;8836;52.272;5.134;2022-08-02T00:29:59;25.40;96.50
17437;DHT22;8836;52.272;5.134;2022-08-02T00:32:25;25.40;96.50
17437;DHT22;8836;52.272;5.134;2022-08-02T00:34:54;25.40;96.50
17437;DHT22;8836;52.272;5.134;2022-08-02T00:37:21;25.50;96.60
17437;DHT22;8836;52.272;5.134;2022-08-02T00:39:48;25.40;96.50
17437;DHT22;8836;52.272;5.134;2022-08-02T00:42:15;25.30;96.50
17437;DHT22;8836;52.272;5.134;2022-08-02T00:44:42;25.40;96.50
17437;DHT22;8836;52.272;5.134;2022-08-02T00:47:09;25.40;96.70
17437;DHT22;8836;52.272;5.134;2022-08-02T00:49:36;25.40;96.60
17437;DHT22;8836;52.272;5.134;2022-08-02T00:52:05;25.40;96.50
17437;DHT22;8836;52.272;5.134;2022-08-02T00:54:33;25.40;96.50
17437;DHT22;8836;52.272;5.134;2022-08-02T00:57:00;25.30;96.50
17437;DHT22;8836;52.272;5.134;2022-08-02T00:59:27;25.30;96.50
17437;DHT22;8836;52.272;5.134;2022-08-02T01:01:54;25.30;96.50
17437;DHT22;8836;52.272;5.134;2022-08-02T01:04:21;25.30;96.50
17437;DHT22;8836;52.272;5.134;2022-08-02T01:06:48;25.30;96.50
17437;DHT22;8836;52.272;5.134;2022-08-02T01:09:16;25.30;96.70
17437;DHT22;8836;52.272;5.134;2022-08-02T01:11:43;25.30;96.60
17437;DHT22;8836;52.272;5.134;2022-08-02T01:14:12;25.30;96.60
17437;DHT22;8836;52.272;5.134;2022-08-02T01:16:46;25.30;96.50
17437;DHT22;8836;52.272;5.134;2022-08-02T01:19:33;25.30;96.50
17437;DHT22;8836;52.272;5.134;2022-08-02T01:22:18;25.40;96.50
17437;DHT22;8836;52.272;5.134;2022-08-02T01:25:24;25.30;96.50
17437;DHT22;8836;52.272;5.134;2022-08-02T01:28:17;25.30;96.50
17437;DHT22;8836;52.272;5.134;2022-08-02T01:30:57;25.30;96.50
17437;DHT22;8836;52.272;5.134;2022-08-02T01:33:38;25.30;96.50
17437;DHT22;8836;52.272;5.134;2022-08-02T01:36:12;25.30;96.50
17437;DHT22;8836;52.272;5.134;2022-08-02T01:38:45;25.30;96.50
17437;DHT22;8836;52.272;5.134;2022-08-02T01:41:17;25.30;96.50
17437;DHT22;8836;52.272;5.134;2022-08-02T01:43:51;25.30;96.50
17437;DHT22;8836;52.272;5.134;2022-08-02T01:46:22;25.30;96.50
17437;DHT22;8836;52.272;5.134;2022-08-02T01:48:53;25.30;96.50
17437;DHT22;8836;52.272;5.134;2022-08-02T01:51:24;25.30;96.50
17437;DHT22;8836;52.272;5.134;2022-08-02T01:54:10;25.30;96.50
17437;DHT22;8836;52.272;5.134;2022-08-02T01:56:43;25.30;96.50
17437;DHT22;8836;52.272;5.134;2022-08-02T01:59:20;25.30;96.50
17437;DHT22;8836;52.272;5.134;2022-08-02T02:01:50;25.30;96.50
17437;DHT22;8836;52.272;5.134;2022-08-02T02:04:21;25.30;96.50
17437;DHT22;8836;52.272;5.134;2022-08-02T02:06:51;25.30;96.50
17437;DHT22;8836;52.272;5.134;2022-08-02T02:09:21;25.20;96.40
17437;DHT22;8836;52.272;5.134;2022-08-02T02:11:55;25.30;96.50
17437;DHT22;8836;52.272;5.134;2022-08-02T02:14:27;25.30;96.50
17437;DHT22;8836;52.272;5.134;2022-08-02T02:16:56;25.20;96.50
17437;DHT22;8836;52.272;5.134;2022-08-02T02:19:25;25.30;96.50
17437;DHT22;8836;52.272;5.134;2022-08-02T02:21:54;25.20;96.50
17437;DHT22;8836;52.272;5.134;2022-08-02T02:24:22;25.20;96.50
17437;DHT22;8836;52.272;5.134;2022-08-02T02:26:50;25.20;96.50
17437;DHT22;8836;52.272;5.134;2022-08-02T02:29:19;25.20;96.50
17437;DHT22;8836;52.272;5.134;2022-08-02T02:31:51;26.40;97.20
17437;DHT22;8836;52.272;5.134;2022-08-02T02:34:25;25.20;96.50
17437;DHT22;8836;52.272;5.134;2022-08-02T02:36:56;25.20;96.50
17437;DHT22;8836;52.272;5.134;2022-08-02T02:39:27;25.20;96.50
17437;DHT22;8836;52.272;5.134;2022-08-02T02:41:59;25.20;96.50
17437;DHT22;8836;52.272;5.134;2022-08-02T02:44:30;25.20;96.50
17437;DHT22;8836;52.272;5.134;2022-08-02T02:47:01;25.20;96.50
17437;DHT22;8836;52.272;5.134;2022-08-02T02:49:30;26.20;96.90
17437;DHT22;8836;52.272;5.134;2022-08-02T02:52:01;25.10;96.50
17437;DHT22;8836;52.272;5.134;2022-08-02T02:54:29;25.20;96.50
17437;DHT22;8836;52.272;5.134;2022-08-02T02:56:58;25.20;96.40
17437;DHT22;8836;52.272;5.134;2022-08-02T02:59:27;25.20;96.40
17437;DHT22;8836;52.272;5.134;2022-08-02T03:01:55;25.10;96.40
17437;DHT22;8836;52.272;5.134;2022-08-02T03:04:26;25.20;96.40
17437;DHT22;8836;52.272;5.134;2022-08-02T03:06:54;25.20;96.40
17437;DHT22;8836;52.272;5.134;2022-08-02T03:09:21;25.20;96.40
17437;DHT22;8836;52.272;5.134;2022-08-02T03:11:48;25.20;96.40
17437;DHT22;8836;52.272;5.134;2022-08-02T03:14:16;25.20;96.40
17437;DHT22;8836;52.272;5.134;2022-08-02T03:16:46;25.20;96.40
17437;DHT22;8836;52.272;5.134;2022-08-02T03:19:15;25.20;96.50
17437;DHT22;8836;52.272;5.134;2022-08-02T03:21:48;25.10;96.70
17437;DHT22;8836;52.272;5.134;2022-08-02T03:24:16;25.20;96.50
17437;DHT22;8836;52.272;5.134;2022-08-02T03:26:43;25.10;96.40
17437;DHT22;8836;52.272;5.134;2022-08-02T03:29:10;25.10;96.50
17437;DHT22;8836;52.272;5.134;2022-08-02T03:31:39;25.10;96.40
17437;DHT22;8836;52.272;5.134;2022-08-02T03:34:08;25.10;96.40
17437;DHT22;8836;52.272;5.134;2022-08-02T03:36:35;25.20;96.50
17437;DHT22;8836;52.272;5.134;2022-08-02T03:39:05;25.10;96.40
17437;DHT22;8836;52.272;5.134;2022-08-02T03:41:35;25.60;96.60
17437;DHT22;8836;52.272;5.134;2022-08-02T03:44:03;25.10;96.40
17437;DHT22;8836;52.272;5.134;2022-08-02T03:46:33;25.10;96.40
17437;DHT22;8836;52.272;5.134;2022-08-02T03:49:04;25.10;96.50
17437;DHT22;8836;52.272;5.134;2022-08-02T03:51:33;25.10;96.50
17437;DHT22;8836;52.272;5.134;2022-08-02T03:54:05;25.10;96.50
17437;DHT22;8836;52.272;5.134;2022-08-02T03:56:35;25.10;96.50
17437;DHT22;8836;52.272;5.134;2022-08-02T03:59:07;25.10;96.50
17437;DHT22;8836;52.272;5.134;2022-08-02T04:01:35;25.10;96.50
17437;DHT22;8836;52.272;5.134;2022-08-02T04:04:03;25.10;96.40
17437;DHT22;8836;52.272;5.134;2022-08-02T04:06:30;25.10;96.50
17437;DHT22;8836;52.272;5.134;2022-08-02T04:08:58;25.10;96.40
17437;DHT22;8836;52.272;5.134;2022-08-02T04:11:26;25.10;96.40
17437;DHT22;8836;52.272;5.134;2022-08-02T04:13:56;25.10;96.40
17437;DHT22;8836;52.272;5.134;2022-08-02T04:16:30;25.10;96.40
17437;DHT22;8836;52.272;5.134;2022-08-02T04:19:08;25.10;96.40
17437;DHT22;8836;52.272;5.134;2022-08-02T04:21:40;25.10;96.50
17437;DHT22;8836;52.272;5.134;2022-08-02T04:24:10;25.10;96.50
17437;DHT22;8836;52.272;5.134;2022-08-02T04:26:42;25.10;96.50
17437;DHT22;8836;52.272;5.134;2022-08-02T04:29:12;25.10;96.50
17437;DHT22;8836;52.272;5.134;2022-08-02T04:31:41;25.10;96.50
17437;DHT22;8836;52.272;5.134;2022-08-02T04:34:08;25.10;96.50
17437;DHT22;8836;52.272;5.134;2022-08-02T04:36:37;25.10;96.50
17437;DHT22;8836;52.272;5.134;2022-08-02T04:39:04;25.10;96.60
17437;DHT22;8836;52.272;5.134;2022-08-02T04:41:38;25.00;96.50
17437;DHT22;8836;52.272;5.134;2022-08-02T04:44:07;25.10;96.50
17437;DHT22;8836;52.272;5.134;2022-08-02T04:46:35;25.10;96.50
17437;DHT22;8836;52.272;5.134;2022-08-02T04:49:02;26.00;96.80
17437;DHT22;8836;52.272;5.134;2022-08-02T04:51:29;25.50;96.60
17437;DHT22;8836;52.272;5.134;2022-08-02T04:53:56;25.10;96.40
17437;DHT22;8836;52.272;5.134;2022-08-02T04:56:23;25.90;96.70
17437;DHT22;8836;52.272;5.134;2022-08-02T04:58:50;25.10;96.40
17437;DHT22;8836;52.272;5.134;2022-08-02T05:01:18;25.10;96.50
17437;DHT22;8836;52.272;5.134;2022-08-02T05:03:45;25.10;96.40
17437;DHT22;8836;52.272;5.134;2022-08-02T05:06:12;25.10;96.40
17437;DHT22;8836;52.272;5.134;2022-08-02T05:08:40;25.10;96.40
17437;DHT22;8836;52.272;5.134;2022-08-02T05:11:07;25.10;96.40
17437;DHT22;8836;52.272;5.134;2022-08-02T05:13:34;25.10;96.40
17437;DHT22;8836;52.272;5.134;2022-08-02T05:16:01;25.10;96.40
17437;DHT22;8836;52.272;5.134;2022-08-02T05:18:30;25.10;96.40
17437;DHT22;8836;52.272;5.134;2022-08-02T05:20:57;25.10;96.40
17437;DHT22;8836;52.272;5.134;2022-08-02T05:23:24;25.10;96.30
17437;DHT22;8836;52.272;5.134;2022-08-02T05:25:51;25.10;96.30
17437;DHT22;8836;52.272;5.134;2022-08-02T05:28:18;25.10;96.30
17437;DHT22;8836;52.272;5.134;2022-08-02T05:30:45;25.10;96.30
17437;DHT22;8836;52.272;5.134;2022-08-02T05:33:12;25.10;96.40
17437;DHT22;8836;52.272;5.134;2022-08-02T05:35:42;25.10;96.30
17437;DHT22;8836;52.272;5.134;2022-08-02T05:38:11;25.10;96.30
17437;DHT22;8836;52.272;5.134;2022-08-02T05:40:38;25.10;96.70
17437;DHT22;8836;52.272;5.134;2022-08-02T05:43:10;25.10;96.40
17437;DHT22;8836;52.272;5.134;2022-08-02T05:45:38;25.20;96.40
17437;DHT22;8836;52.272;5.134;2022-08-02T05:48:05;25.20;96.70
17437;DHT22;8836;52.272;5.134;2022-08-02T05:50:37;25.20;96.50
17437;DHT22;8836;52.272;5.134;2022-08-02T05:53:14;25.20;96.50
17437;DHT22;8836;52.272;5.134;2022-08-02T05:55:56;25.20;96.50
17437;DHT22;8836;52.272;5.134;2022-08-02T05:58:41;25.20;96.50
17437;DHT22;8836;52.272;5.134;2022-08-02T06:01:21;25.20;96.40
17437;DHT22;8836;52.272;5.134;2022-08-02T06:03:56;25.20;96.30
17437;DHT22;8836;52.272;5.134;2022-08-02T06:06:26;25.20;96.30
17437;DHT22;8836;52.272;5.134;2022-08-02T06:09:00;25.20;96.20
17437;DHT22;8836;52.272;5.134;2022-08-02T06:11:34;25.30;96.20
17437;DHT22;8836;52.272;5.134;2022-08-02T06:14:05;25.20;96.10
17437;DHT22;8836;52.272;5.134;2022-08-02T06:16:33;25.30;96.10
17437;DHT22;8836;52.272;5.134;2022-08-02T06:19:01;25.30;96.10
17437;DHT22;8836;52.272;5.134;2022-08-02T06:21:30;25.30;96.00
17437;DHT22;8836;52.272;5.134;2022-08-02T06:23:59;25.30;96.00
17437;DHT22;8836;52.272;5.134;2022-08-02T06:26:28;25.30;96.00
17437;DHT22;8836;52.272;5.134;2022-08-02T06:28:56;25.30;95.90
17437;DHT22;8836;52.272;5.134;2022-08-02T06:31:25;25.30;96.00
17437;DHT22;8836;52.272;5.134;2022-08-02T06:33:52;25.30;96.00
17437;DHT22;8836;52.272;5.134;2022-08-02T06:36:26;25.30;96.00
17437;DHT22;8836;52.272;5.134;2022-08-02T06:39:04;25.30;95.90
17437;DHT22;8836;52.272;5.134;2022-08-02T06:41:38;25.30;96.00
17437;DHT22;8836;52.272;5.134;2022-08-02T06:44:08;25.80;96.20
17437;DHT22;8836;52.272;5.134;2022-08-02T06:46:35;25.30;96.00
17437;DHT22;8836;52.272;5.134;2022-08-02T06:49:03;25.30;96.00
17437;DHT22;8836;52.272;5.134;2022-08-02T06:51:30;25.30;96.10
17437;DHT22;8836;52.272;5.134;2022-08-02T06:53:58;25.30;96.10
17437;DHT22;8836;52.272;5.134;2022-08-02T06:56:26;25.30;96.10
17437;DHT22;8836;52.272;5.134;2022-08-02T06:58:53;25.30;96.10
17437;DHT22;8836;52.272;5.134;2022-08-02T07:01:20;25.40;96.20
17437;DHT22;8836;52.272;5.134;2022-08-02T07:03:47;25.40;96.20
17437;DHT22;8836;52.272;5.134;2022-08-02T07:06:15;25.40;96.30
17437;DHT22;8836;52.272;5.134;2022-08-02T07:08:43;25.40;96.30
17437;DHT22;8836;52.272;5.134;2022-08-02T07:11:10;25.40;96.30
17437;DHT22;8836;52.272;5.134;2022-08-02T07:13:38;25.40;96.40
17437;DHT22;8836;52.272;5.134;2022-08-02T07:16:05;25.40;96.50
17437;DHT22;8836;52.272;5.134;2022-08-02T07:18:33;25.40;96.50
17437;DHT22;8836;52.272;5.134;2022-08-02T07:21:01;25.40;96.50
17437;DHT22;8836;52.272;5.134;2022-08-02T07:23:29;25.40;96.60
17437;DHT22;8836;52.272;5.134;2022-08-02T07:25:57;25.40;96.90
17437;DHT22;8836;52.272;5.134;2022-08-02T07:28:24;25.50;96.70
17437;DHT22;8836;52.272;5.134;2022-08-02T07:30:53;25.50;96.80
17437;DHT22;8836;52.272;5.134;2022-08-02T07:33:20;26.10;97.00
17437;DHT22;8836;52.272;5.134;2022-08-02T07:35:47;25.50;96.80
17437;DHT22;8836;52.272;5.134;2022-08-02T07:38:17;25.50;96.90
17437;DHT22;8836;52.272;5.134;2022-08-02T07:40:47;25.50;96.90
17437;DHT22;8836;52.272;5.134;2022-08-02T07:43:17;25.50;97.00
17437;DHT22;8836;52.272;5.134;2022-08-02T07:45:48;25.50;97.00
17437;DHT22;8836;52.272;5.134;2022-08-02T07:48:16;25.50;97.50
17437;DHT22;8836;52.272;5.134;2022-08-02T07:50:43;25.50;97.10
17437;DHT22;8836;52.272;5.134;2022-08-02T07:53:12;25.50;97.20
17437;DHT22;8836;52.272;5.134;2022-08-02T07:55:42;25.50;97.20
17437;DHT22;8836;52.272;5.134;2022-08-02T07:58:09;25.50;97.20
17437;DHT22;8836;52.272;5.134;2022-08-02T08:00:37;25.60;97.30
17437;DHT22;8836;52.272;5.134;2022-08-02T08:03:05;25.60;97.30
17437;DHT22;8836;52.272;5.134;2022-08-02T08:05:33;25.60;97.30
17437;DHT22;8836;52.272;5.134;2022-08-02T08:08:01;25.60;97.40
17437;DHT22;8836;52.272;5.134;2022-08-02T08:10:28;25.70;97.40
17437;DHT22;8836;52.272;5.134;2022-08-02T08:12:55;25.70;97.50
17437;DHT22;8836;52.272;5.134;2022-08-02T08:15:22;25.70;97.60
17437;DHT22;8836;52.272;5.134;2022-08-02T08:17:49;25.70;97.70
17437;DHT22;8836;52.272;5.134;2022-08-02T08:20:16;25.70;97.70
17437;DHT22;8836;52.272;5.134;2022-08-02T08:22:47;25.70;98.00
17437;DHT22;8836;52.272;5.134;2022-08-02T08:25:17;25.60;98.10
17437;DHT22;8836;52.272;5.134;2022-08-02T08:27:47;25.70;98.20
17437;DHT22;8836;52.272;5.134;2022-08-02T08:30:16;25.70;98.50
17437;DHT22;8836;52.272;5.134;2022-08-02T08:32:45;25.70;98.40
17437;DHT22;8836;52.272;5.134;2022-08-02T08:35:12;25.70;98.50
17437;DHT22;8836;52.272;5.134;2022-08-02T08:37:46;26.40;98.80
17437;DHT22;8836;52.272;5.134;2022-08-02T08:40:14;25.60;98.90
17437;DHT22;8836;52.272;5.134;2022-08-02T08:42:42;25.60;99.00
17437;DHT22;8836;52.272;5.134;2022-08-02T08:45:11;25.50;99.10
17437;DHT22;8836;52.272;5.134;2022-08-02T08:47:40;25.50;99.30
17437;DHT22;8836;52.272;5.134;2022-08-02T08:50:10;25.50;99.30
17437;DHT22;8836;52.272;5.134;2022-08-02T08:52:48;25.50;99.60
17437;DHT22;8836;52.272;5.134;2022-08-02T08:55:21;25.50;99.60
17437;DHT22;8836;52.272;5.134;2022-08-02T08:57:53;25.50;99.60
17437;DHT22;8836;52.272;5.134;2022-08-02T09:00:21;25.50;99.50
17437;DHT22;8836;52.272;5.134;2022-08-02T09:02:48;25.50;99.40
17437;DHT22;8836;52.272;5.134;2022-08-02T09:05:16;25.50;99.60
17437;DHT22;8836;52.272;5.134;2022-08-02T09:07:50;25.50;99.70
17437;DHT22;8836;52.272;5.134;2022-08-02T09:10:38;25.50;99.70
17437;DHT22;8836;52.272;5.134;2022-08-02T09:13:17;25.60;99.60
17437;DHT22;8836;52.272;5.134;2022-08-02T09:15:53;25.60;99.50
17437;DHT22;8836;52.272;5.134;2022-08-02T09:18:29;25.60;99.40
17437;DHT22;8836;52.272;5.134;2022-08-02T09:20:58;25.70;99.40
17437;DHT22;8836;52.272;5.134;2022-08-02T09:23:34;25.70;99.40
17437;DHT22;8836;52.272;5.134;2022-08-02T09:26:04;25.70;99.40
17437;DHT22;8836;52.272;5.134;2022-08-02T09:28:34;27.10;99.90
17437;DHT22;8836;52.272;5.134;2022-08-02T09:31:04;25.70;99.30
17437;DHT22;8836;52.272;5.134;2022-08-02T09:33:34;25.70;99.40
17437;DHT22;8836;52.272;5.134;2022-08-02T09:36:04;25.80;99.40
17437;DHT22;8836;52.272;5.134;2022-08-02T09:38:34;25.80;99.60
17437;DHT22;8836;52.272;5.134;2022-08-02T09:41:03;25.80;99.60
17437;DHT22;8836;52.272;5.134;2022-08-02T09:43:37;25.70;99.70
17437;DHT22;8836;52.272;5.134;2022-08-02T09:46:13;25.80;99.70
17437;DHT22;8836;52.272;5.134;2022-08-02T09:48:50;25.90;99.60
17437;DHT22;8836;52.272;5.134;2022-08-02T09:51:21;25.90;99.70
17437;DHT22;8836;52.272;5.134;2022-08-02T09:53:52;25.90;99.70
17437;DHT22;8836;52.272;5.134;2022-08-02T09:56:21;26.00;99.80
17437;DHT22;8836;52.272;5.134;2022-08-02T09:58:51;25.90;99.80
17437;DHT22;8836;52.272;5.134;2022-08-02T10:01:20;26.00;99.80
17437;DHT22;8836;52.272;5.134;2022-08-02T10:03:58;26.00;99.80
17437;DHT22;8836;52.272;5.134;2022-08-02T10:06:26;26.10;99.80
17437;DHT22;8836;52.272;5.134;2022-08-02T10:08:55;26.00;99.90
17437;DHT22;8836;52.272;5.134;2022-08-02T10:11:24;25.90;99.90
17437;DHT22;8836;52.272;5.134;2022-08-02T10:13:54;25.90;99.90
17437;DHT22;8836;52.272;5.134;2022-08-02T10:16:22;26.00;99.90
17437;DHT22;8836;52.272;5.134;2022-08-02T10:18:51;26.00;99.90
17437;DHT22;8836;52.272;5.134;2022-08-02T10:21:23;26.00;99.90
17437;DHT22;8836;52.272;5.134;2022-08-02T10:24:04;26.00;99.90
17437;DHT22;8836;52.272;5.134;2022-08-02T10:26:33;26.00;99.90
17437;DHT22;8836;52.272;5.134;2022-08-02T10:29:02;25.90;99.90
17437;DHT22;8836;52.272;5.134;2022-08-02T10:31:35;25.90;99.90
17437;DHT22;8836;52.272;5.134;2022-08-02T10:34:10;26.00;99.90
17437;DHT22;8836;52.272;5.134;2022-08-02T10:36:41;26.00;99.90
17437;DHT22;8836;52.272;5.134;2022-08-02T10:39:12;25.90;99.90
17437;DHT22;8836;52.272;5.134;2022-08-02T10:41:42;26.70;99.90
17437;DHT22;8836;52.272;5.134;2022-08-02T10:44:23;25.90;99.90
17437;DHT22;8836;52.272;5.134;2022-08-02T10:46:52;26.00;99.90
17437;DHT22;8836;52.272;5.134;2022-08-02T10:49:48;25.90;99.90
17437;DHT22;8836;52.272;5.134;2022-08-02T10:52:17;26.00;99.90
17437;DHT22;8836;52.272;5.134;2022-08-02T10:54:50;26.00;99.90
17437;DHT22;8836;52.272;5.134;2022-08-02T10:57:22;26.10;99.90
17437;DHT22;8836;52.272;5.134;2022-08-02T10:59:54;26.20;99.90
17437;DHT22;8836;52.272;5.134;2022-08-02T11:02:38;26.20;99.90
17437;DHT22;8836;52.272;5.134;2022-08-02T11:05:09;26.30;99.90
17437;DHT22;8836;52.272;5.134;2022-08-02T11:07:41;26.20;99.90
17437;DHT22;8836;52.272;5.134;2022-08-02T11:10:32;26.20;99.90
17437;DHT22;8836;52.272;5.134;2022-08-02T11:13:07;26.20;99.90
17437;DHT22;8836;52.272;5.134;2022-08-02T11:15:47;26.20;99.90
17437;DHT22;8836;52.272;5.134;2022-08-02T11:18:21;26.30;99.90
17437;DHT22;8836;52.272;5.134;2022-08-02T11:21:20;26.30;99.90
17437;DHT22;8836;52.272;5.134;2022-08-02T11:23:49;26.40;99.90
17437;DHT22;8836;52.272;5.134;2022-08-02T11:26:43;26.30;99.90
17437;DHT22;8836;52.272;5.134;2022-08-02T11:29:12;26.20;99.90
17437;DHT22;8836;52.272;5.134;2022-08-02T11:31:40;26.20;99.90
17437;DHT22;8836;52.272;5.134;2022-08-02T11:34:09;26.30;99.90
17437;DHT22;8836;52.272;5.134;2022-08-02T11:36:46;26.30;99.70
17437;DHT22;8836;52.272;5.134;2022-08-02T11:39:17;26.40;99.50
17437;DHT22;8836;52.272;5.134;2022-08-02T11:41:51;26.40;99.50
17437;DHT22;8836;52.272;5.134;2022-08-02T11:44:22;26.50;99.40
17437;DHT22;8836;52.272;5.134;2022-08-02T11:46:56;26.50;99.40
17437;DHT22;8836;52.272;5.134;2022-08-02T11:49:26;26.60;99.10
17437;DHT22;8836;52.272;5.134;2022-08-02T11:51:58;26.60;99.00
17437;DHT22;8836;52.272;5.134;2022-08-02T11:54:31;26.60;98.80
17437;DHT22;8836;52.272;5.134;2022-08-02T11:57:11;26.60;98.70
17437;DHT22;8836;52.272;5.134;2022-08-02T11:59:43;26.60;98.30
17437;DHT22;8836;52.272;5.134;2022-08-02T12:02:12;26.60;98.10
17437;DHT22;8836;52.272;5.134;2022-08-02T12:04:41;26.60;98.10
17437;DHT22;8836;52.272;5.134;2022-08-02T12:07:11;26.60;97.80
17437;DHT22;8836;52.272;5.134;2022-08-02T12:09:38;26.70;97.90
17437;DHT22;8836;52.272;5.134;2022-08-02T12:12:05;26.70;97.90
17437;DHT22;8836;52.272;5.134;2022-08-02T12:14:42;26.80;97.80
17437;DHT22;8836;52.272;5.134;2022-08-02T12:17:11;26.80;97.60
17437;DHT22;8836;52.272;5.134;2022-08-02T12:20:04;26.80;97.50
17437;DHT22;8836;52.272;5.134;2022-08-02T12:22:32;26.80;97.40
17437;DHT22;8836;52.272;5.134;2022-08-02T12:25:15;26.90;97.30
17437;DHT22;8836;52.272;5.134;2022-08-02T12:27:43;26.90;97.00
17437;DHT22;8836;52.272;5.134;2022-08-02T12:30:15;26.90;96.90
17437;DHT22;8836;52.272;5.134;2022-08-02T12:32:47;27.00;97.00
17437;DHT22;8836;52.272;5.134;2022-08-02T12:35:18;26.90;97.00
17437;DHT22;8836;52.272;5.134;2022-08-02T12:37:47;26.90;97.00
17437;DHT22;8836;52.272;5.134;2022-08-02T12:40:19;26.90;96.90
17437;DHT22;8836;52.272;5.134;2022-08-02T12:42:53;27.00;96.80
17437;DHT22;8836;52.272;5.134;2022-08-02T12:45:23;26.90;96.80
17437;DHT22;8836;52.272;5.134;2022-08-02T12:47:54;26.90;96.90
17437;DHT22;8836;52.272;5.134;2022-08-02T12:50:25;26.90;97.00
17437;DHT22;8836;52.272;5.134;2022-08-02T12:53:02;26.90;96.90
17437;DHT22;8836;52.272;5.134;2022-08-02T12:55:31;27.00;96.90
17437;DHT22;8836;52.272;5.134;2022-08-02T12:58:00;27.00;96.80
17437;DHT22;8836;52.272;5.134;2022-08-02T13:00:31;27.00;96.60
17437;DHT22;8836;52.272;5.134;2022-08-02T13:03:00;27.10;96.70
17437;DHT22;8836;52.272;5.134;2022-08-02T13:05:29;27.10;96.70
17437;DHT22;8836;52.272;5.134;2022-08-02T13:07:58;27.10;96.60
17437;DHT22;8836;52.272;5.134;2022-08-02T13:10:25;27.10;96.70
17437;DHT22;8836;52.272;5.134;2022-08-02T13:12:53;27.10;96.60
17437;DHT22;8836;52.272;5.134;2022-08-02T13:15:22;27.10;96.60
17437;DHT22;8836;52.272;5.134;2022-08-02T13:17:54;27.10;96.50
17437;DHT22;8836;52.272;5.134;2022-08-02T13:20:23;27.20;96.50
17437;DHT22;8836;52.272;5.134;2022-08-02T13:22:52;27.20;96.50
17437;DHT22;8836;52.272;5.134;2022-08-02T13:25:20;27.20;96.50
17437;DHT22;8836;52.272;5.134;2022-08-02T13:27:48;27.30;96.50
17437;DHT22;8836;52.272;5.134;2022-08-02T13:30:15;27.20;96.50
17437;DHT22;8836;52.272;5.134;2022-08-02T13:32:43;27.30;96.60
17437;DHT22;8836;52.272;5.134;2022-08-02T13:35:12;27.30;96.60
17437;DHT22;8836;52.272;5.134;2022-08-02T13:37:40;27.30;96.50
17437;DHT22;8836;52.272;5.134;2022-08-02T13:40:09;27.30;96.30
17437;DHT22;8836;52.272;5.134;2022-08-02T13:42:36;27.30;96.10
17437;DHT22;8836;52.272;5.134;2022-08-02T13:45:04;27.30;95.90
17437;DHT22;8836;52.272;5.134;2022-08-02T13:47:37;27.30;95.10
17437;DHT22;8836;52.272;5.134;2022-08-02T13:50:05;27.30;94.80
17437;DHT22;8836;52.272;5.134;2022-08-02T13:52:34;27.40;95.00
17437;DHT22;8836;52.272;5.134;2022-08-02T13:55:02;27.40;95.10
17437;DHT22;8836;52.272;5.134;2022-08-02T13:57:30;27.40;95.10
17437;DHT22;8836;52.272;5.134;2022-08-02T13:59:57;27.40;95.30
17437;DHT22;8836;52.272;5.134;2022-08-02T14:02:24;27.30;95.30
17437;DHT22;8836;52.272;5.134;2022-08-02T14:04:52;27.30;95.50
17437;DHT22;8836;52.272;5.134;2022-08-02T14:07:19;27.40;95.50
17437;DHT22;8836;52.272;5.134;2022-08-02T14:09:48;27.40;95.40
17437;DHT22;8836;52.272;5.134;2022-08-02T14:12:15;27.40;95.40
17437;DHT22;8836;52.272;5.134;2022-08-02T14:14:42;27.40;95.30
17437;DHT22;8836;52.272;5.134;2022-08-02T14:17:10;27.50;95.40
17437;DHT22;8836;52.272;5.134;2022-08-02T14:19:38;27.40;95.50
17437;DHT22;8836;52.272;5.134;2022-08-02T14:22:05;27.50;95.50
17437;DHT22;8836;52.272;5.134;2022-08-02T14:24:32;27.60;95.70
17437;DHT22;8836;52.272;5.134;2022-08-02T14:27:00;27.50;95.50
17437;DHT22;8836;52.272;5.134;2022-08-02T14:29:27;27.50;95.60
17437;DHT22;8836;52.272;5.134;2022-08-02T14:31:54;27.50;95.90
17437;DHT22;8836;52.272;5.134;2022-08-02T14:34:21;27.40;95.80
17437;DHT22;8836;52.272;5.134;2022-08-02T14:36:48;27.30;95.90
17437;DHT22;8836;52.272;5.134;2022-08-02T14:39:17;27.30;96.10
17437;DHT22;8836;52.272;5.134;2022-08-02T14:41:44;27.40;95.90
17437;DHT22;8836;52.272;5.134;2022-08-02T14:44:13;27.30;95.90
17437;DHT22;8836;52.272;5.134;2022-08-02T14:46:40;27.30;96.10
17437;DHT22;8836;52.272;5.134;2022-08-02T14:49:08;27.40;96.20
17437;DHT22;8836;52.272;5.134;2022-08-02T14:51:36;27.40;96.20
17437;DHT22;8836;52.272;5.134;2022-08-02T14:54:05;29.00;97.00
17437;DHT22;8836;52.272;5.134;2022-08-02T14:56:35;27.50;96.70
17437;DHT22;8836;52.272;5.134;2022-08-02T14:59:02;27.50;96.60
17437;DHT22;8836;52.272;5.134;2022-08-02T15:01:30;27.60;96.70
17437;DHT22;8836;52.272;5.134;2022-08-02T15:03:57;27.60;96.70
17437;DHT22;8836;52.272;5.134;2022-08-02T15:06:24;27.60;96.90
17437;DHT22;8836;52.272;5.134;2022-08-02T15:08:53;27.60;97.10
17437;DHT22;8836;52.272;5.134;2022-08-02T15:11:20;27.60;97.10
17437;DHT22;8836;52.272;5.134;2022-08-02T15:13:47;27.60;97.30
17437;DHT22;8836;52.272;5.134;2022-08-02T15:16:17;27.60;97.30
17437;DHT22;8836;52.272;5.134;2022-08-02T15:18:49;27.70;97.40
17437;DHT22;8836;52.272;5.134;2022-08-02T15:21:15;27.70;97.60
17437;DHT22;8836;52.272;5.134;2022-08-02T15:23:42;27.70;97.60
17437;DHT22;8836;52.272;5.134;2022-08-02T15:26:10;27.70;97.50
17437;DHT22;8836;52.272;5.134;2022-08-02T15:28:37;27.70;97.50
17437;DHT22;8836;52.272;5.134;2022-08-02T15:31:04;27.70;97.50
17437;DHT22;8836;52.272;5.134;2022-08-02T15:33:31;27.70;97.70
17437;DHT22;8836;52.272;5.134;2022-08-02T15:35:59;27.70;97.70
17437;DHT22;8836;52.272;5.134;2022-08-02T15:38:26;27.80;97.70
17437;DHT22;8836;52.272;5.134;2022-08-02T15:40:53;27.80;97.80
17437;DHT22;8836;52.272;5.134;2022-08-02T15:43:22;27.70;97.90
17437;DHT22;8836;52.272;5.134;2022-08-02T15:45:49;27.70;98.00
17437;DHT22;8836;52.272;5.134;2022-08-02T15:48:16;27.70;98.00
17437;DHT22;8836;52.272;5.134;2022-08-02T15:50:45;27.80;98.10
17437;DHT22;8836;52.272;5.134;2022-08-02T15:53:13;27.80;98.00
17437;DHT22;8836;52.272;5.134;2022-08-02T15:55:42;27.80;98.00
17437;DHT22;8836;52.272;5.134;2022-08-02T15:58:10;27.80;98.10
17437;DHT22;8836;52.272;5.134;2022-08-02T16:00:37;27.80;98.00
17437;DHT22;8836;52.272;5.134;2022-08-02T16:03:06;27.80;98.00